createdAt,value
2018-11-23T00:02:03.977Z,99975.84
2018-11-23T00:04:33.613Z,99975.84
2018-11-23T00:07:03.927Z,99982.00
2018-11-23T00:09:33.642Z,99979.23
2018-11-23T00:12:03.657Z,99976.78
2018-11-23T00:14:33.443Z,99973.20
2018-11-23T00:17:03.907Z,99977.11
2018-11-23T00:19:33.791Z,99965.56
2018-11-23T00:22:04.084Z,99963.28
2018-11-23T00:24:34.432Z,99963.80
2018-11-23T00:27:04.336Z,99836.71
2018-11-23T00:29:35.510Z,99965.47
2018-11-23T00:32:06.473Z,99964.84
2018-11-23T00:34:37.283Z,99977.23
2018-11-23T00:37:07.744Z,99979.67
2018-11-23T00:39:38.705Z,99838.77
2018-11-23T00:42:09.506Z,99997.56
2018-11-23T00:44:39.902Z,99994.48
2018-11-23T00:47:09.783Z,99995.13
2018-11-23T00:49:40.069Z,99994.16
2018-11-23T00:52:10.277Z,99995.59
2018-11-23T00:54:40.565Z,99997.03
2018-11-23T00:57:10.313Z,99988.56
2018-11-23T00:59:40.363Z,99992.83
2018-11-23T01:02:11.662Z,99989.73
2018-11-23T01:04:41.536Z,99981.44
2018-11-23T01:07:11.497Z,99984.37
2018-11-23T01:09:42.122Z,99979.33
2018-11-23T01:12:13.680Z,99983.88
2018-11-23T01:14:43.652Z,99981.92
2018-11-23T01:17:13.755Z,99973.62
2018-11-23T01:19:43.804Z,99977.38
2018-11-23T01:22:14.117Z,99976.23
2018-11-23T01:24:43.974Z,99981.11
2018-11-23T01:27:13.598Z,99972.98
2018-11-23T01:29:43.574Z,99981.92
2018-11-23T01:32:13.582Z,99973.62
2018-11-23T01:34:43.391Z,99976.55
2018-11-23T01:37:13.395Z,99982.91
2018-11-23T01:39:43.542Z,99990.39
2018-11-23T01:42:14.528Z,99978.97
2018-11-23T01:44:50.712Z,99977.17
2018-11-23T01:47:22.598Z,99974.58
2018-11-23T01:49:53.467Z,99978.31
2018-11-23T01:52:23.139Z,99979.94
2018-11-23T01:54:54.204Z,99971.64
2018-11-23T01:57:23.704Z,99971.00
2018-11-23T01:59:53.677Z,99974.93
2018-11-23T02:02:23.788Z,99874.55
2018-11-23T02:04:53.830Z,99964.39
2018-11-23T02:07:24.799Z,99971.02
2018-11-23T02:09:57.015Z,99865.13
2018-11-23T02:12:26.742Z,99979.67
2018-11-23T02:14:56.490Z,99974.50
2018-11-23T02:17:27.205Z,99972.91
2018-11-23T02:19:58.458Z,99977.16
2018-11-23T02:22:29.520Z,99979.09
2018-11-23T02:24:59.444Z,99975.05
2018-11-23T02:27:29.363Z,99973.45
2018-11-23T02:30:00.281Z,99978.33
2018-11-23T02:32:31.829Z,99979.65
2018-11-23T02:35:01.716Z,99977.34
2018-11-23T02:37:31.875Z,99969.24
2018-11-23T02:40:02.064Z,99969.56
2018-11-23T02:42:31.839Z,99971.51
2018-11-23T02:45:02.014Z,99967.80
2018-11-23T02:47:32.075Z,99973.97
2018-11-23T02:50:01.787Z,99960.98
2018-11-23T02:52:32.196Z,99972.23
2018-11-23T02:55:01.786Z,99969.47
2018-11-23T02:57:31.669Z,99974.50
2018-11-23T03:00:03.311Z,99975.31
2018-11-23T03:02:32.959Z,99968.34
2018-11-23T03:05:03.202Z,99972.73
2018-11-23T03:07:32.981Z,99966.39
2018-11-23T03:10:03.386Z,99967.86
2018-11-23T03:12:33.373Z,99984.91
2018-11-23T03:15:03.331Z,99897.94
2018-11-23T03:17:33.738Z,99974.20
2018-11-23T03:20:04.106Z,99965.59
2018-11-23T03:22:34.148Z,99972.90
2018-11-23T03:25:04.716Z,99966.87
2018-11-23T03:27:34.656Z,99970.13
2018-11-23T03:30:05.089Z,99966.87
2018-11-23T03:32:35.140Z,99963.94
2018-11-23T03:35:05.091Z,99960.20
2018-11-23T03:37:34.854Z,99960.83
2018-11-23T03:40:05.335Z,99954.33
2018-11-23T03:42:35.098Z,99949.97
2018-11-23T03:45:05.592Z,99956.63
2018-11-23T03:47:35.379Z,99953.70
2018-11-23T03:50:05.407Z,99947.84
2018-11-23T03:52:35.444Z,99944.94
2018-11-23T03:55:05.734Z,99949.31
2018-11-23T03:57:36.358Z,99943.78
2018-11-23T04:00:17.155Z,99937.47
2018-11-23T04:02:41.924Z,99943.50
2018-11-23T04:05:11.988Z,99947.44
2018-11-23T04:07:42.468Z,99950.03
2018-11-23T04:10:13.671Z,99952.47
2018-11-23T04:12:43.871Z,99950.22
2018-11-23T04:15:14.228Z,99949.88
2018-11-23T04:17:45.531Z,99944.36
2018-11-23T04:20:17.920Z,99936.56
2018-11-23T04:22:47.685Z,99929.77
2018-11-23T04:25:18.350Z,99927.48
2018-11-23T04:27:48.094Z,99935.13
2018-11-23T04:30:18.717Z,99942.08
2018-11-23T04:32:49.560Z,99940.45
2018-11-23T04:35:20.495Z,99936.89
2018-11-23T04:37:50.818Z,99827.99
2018-11-23T04:40:20.783Z,99932.36
2018-11-23T04:42:50.605Z,99931.20
2018-11-23T04:45:20.276Z,99933.50
2018-11-23T04:47:50.087Z,99929.61
2018-11-23T04:50:21.040Z,99936.91
2018-11-23T04:52:50.522Z,99940.62
2018-11-23T04:55:34.380Z,99939.66
2018-11-23T04:58:04.034Z,99939.17
2018-11-23T05:00:33.670Z,99938.53
2018-11-23T05:03:04.053Z,99920.02
2018-11-23T05:05:33.933Z,99940.80
2018-11-23T05:08:06.740Z,99936.42
2018-11-23T05:10:41.496Z,99934.61
2018-11-23T05:13:23.235Z,99935.42
2018-11-23T05:15:53.013Z,99933.31
2018-11-23T05:18:22.864Z,99938.20
2018-11-23T05:20:57.233Z,99935.28
2018-11-23T05:23:27.857Z,99932.02
2018-11-23T05:25:57.758Z,99931.38
2018-11-23T05:28:29.567Z,99836.56
2018-11-23T05:31:00.635Z,99925.84
2018-11-23T05:33:31.178Z,99929.41
2018-11-23T05:36:00.864Z,99927.95
2018-11-23T05:38:31.571Z,99929.91
2018-11-23T05:41:02.263Z,99934.93
2018-11-23T05:43:32.191Z,99937.20
2018-11-23T05:46:02.966Z,99935.90
2018-11-23T05:48:33.584Z,99934.27
2018-11-23T05:51:05.539Z,99930.05
2018-11-23T05:53:35.608Z,99930.02
2018-11-23T05:56:06.206Z,99929.88
2018-11-23T05:58:38.011Z,99928.70
2018-11-23T06:01:07.979Z,99935.78
2018-11-23T06:03:37.843Z,99929.25
2018-11-23T06:06:08.525Z,99940.23
2018-11-23T06:08:38.358Z,99940.80
2018-11-23T06:11:08.605Z,99931.52
2018-11-23T06:13:39.748Z,99934.52
2018-11-23T06:16:09.659Z,99936.75
2018-11-23T06:18:39.515Z,99944.71
2018-11-23T06:21:10.759Z,99947.47
2018-11-23T06:23:40.707Z,99948.41
2018-11-23T06:26:25.462Z,99949.00
2018-11-23T06:28:55.573Z,99947.34
2018-11-23T06:31:25.370Z,99951.48
2018-11-23T06:33:57.247Z,99947.74
2018-11-23T06:36:27.499Z,99948.20
2018-11-23T06:38:58.613Z,99966.59
2018-11-23T06:41:28.426Z,99957.61
2018-11-23T06:44:04.661Z,99948.66
2018-11-23T06:46:34.217Z,99952.55
2018-11-23T06:49:04.405Z,99952.31
2018-11-23T06:51:34.606Z,99947.11
2018-11-23T06:54:04.453Z,99945.48
2018-11-23T06:56:34.751Z,99949.36
2018-11-23T06:59:04.672Z,99950.45
2018-11-23T07:01:34.482Z,99952.39
2018-11-23T07:04:04.471Z,99953.95
2018-11-23T07:06:34.377Z,99953.48
2018-11-23T07:09:05.548Z,99952.53
2018-11-23T07:11:35.884Z,99950.62
2018-11-23T07:14:06.192Z,99953.85
2018-11-23T07:16:36.056Z,99957.12
2018-11-23T07:19:06.621Z,99960.05
2018-11-23T07:21:36.842Z,99955.20
2018-11-23T07:24:07.002Z,99957.02
2018-11-23T07:26:37.046Z,99962.86
2018-11-23T07:29:07.730Z,99890.32
2018-11-23T07:31:37.754Z,99966.06
2018-11-23T07:34:08.055Z,99955.69
2018-11-23T07:36:38.225Z,99951.44
2018-11-23T07:39:13.495Z,99958.20
2018-11-23T07:41:53.776Z,99959.56
2018-11-23T07:44:26.076Z,99951.44
2018-11-23T07:46:56.215Z,99953.03
2018-11-23T07:49:26.614Z,99952.77
2018-11-23T07:51:56.361Z,99959.12
2018-11-23T07:54:26.026Z,99953.70
2018-11-23T07:57:01.152Z,99960.06
2018-11-23T07:59:31.262Z,99963.97
2018-11-23T08:02:01.168Z,99962.34
2018-11-23T08:04:31.447Z,99962.98
2018-11-23T08:07:01.106Z,99962.34
2018-11-23T08:09:31.566Z,99963.52
2018-11-23T08:12:01.978Z,99961.97
2018-11-23T08:14:31.816Z,99955.92
2018-11-23T08:17:02.057Z,99864.23
2018-11-23T08:19:33.224Z,99839.31
2018-11-23T08:22:03.803Z,99950.73
2018-11-23T08:24:33.918Z,99948.50
2018-11-23T08:27:04.046Z,99949.67
2018-11-23T08:29:34.008Z,99856.36
2018-11-23T08:32:03.869Z,99957.00
2018-11-23T08:34:35.379Z,99961.44
2018-11-23T08:37:05.147Z,99963.61
2018-11-23T08:39:36.694Z,99971.11
2018-11-23T08:42:07.109Z,99961.59
2018-11-23T08:44:37.528Z,99962.42
2018-11-23T08:47:07.718Z,99961.52
2018-11-23T08:49:38.420Z,99962.41
2018-11-23T08:52:08.195Z,99962.89
2018-11-23T08:54:38.224Z,99966.50
2018-11-23T08:57:08.431Z,99968.47
2018-11-23T08:59:38.685Z,99967.95
2018-11-23T09:02:08.313Z,99965.20
2018-11-23T09:04:38.978Z,99963.14
2018-11-23T09:07:08.770Z,99964.45
2018-11-23T09:09:39.432Z,99964.79
2018-11-23T09:12:09.516Z,99958.67
2018-11-23T09:14:41.878Z,99958.05
2018-11-23T09:17:12.269Z,99960.80
2018-11-23T09:19:44.824Z,99959.71
2018-11-23T09:22:14.834Z,99950.97
2018-11-23T09:24:45.530Z,99951.48
2018-11-23T09:27:15.520Z,99953.58
2018-11-23T09:29:45.231Z,99958.47
2018-11-23T09:32:15.195Z,99835.91
2018-11-23T09:34:45.607Z,99954.56
2018-11-23T09:37:15.195Z,99962.53
2018-11-23T09:39:45.838Z,99964.00
2018-11-23T09:42:16.089Z,99966.12
2018-11-23T09:44:46.051Z,99969.52
2018-11-23T09:47:16.365Z,99963.84
2018-11-23T09:49:46.541Z,99862.58
2018-11-23T09:52:19.720Z,99955.08
2018-11-23T09:54:49.672Z,99961.56
2018-11-23T09:57:19.564Z,99950.52
2018-11-23T09:59:49.362Z,99950.20
2018-11-23T10:02:19.335Z,99878.30
2018-11-23T10:04:49.287Z,99961.56
2018-11-23T10:07:19.186Z,99862.42
2018-11-23T10:09:50.077Z,99963.52
2018-11-23T10:12:19.538Z,99957.33
2018-11-23T10:14:49.280Z,99955.17
2018-11-23T10:17:18.815Z,99955.17
2018-11-23T10:19:49.652Z,99949.28
2018-11-23T10:22:19.763Z,99909.83
2018-11-23T10:24:49.467Z,99940.25
2018-11-23T10:27:19.761Z,99937.01
2018-11-23T10:29:55.140Z,99937.98
2018-11-23T10:32:21.052Z,99929.03
2018-11-23T10:34:51.553Z,99925.84
2018-11-23T10:37:22.279Z,99920.77
2018-11-23T10:39:52.491Z,99923.52
2018-11-23T10:42:22.655Z,99916.98
2018-11-23T10:44:52.758Z,99916.66
2018-11-23T10:47:22.788Z,99916.98
2018-11-23T10:49:53.187Z,99922.05
2018-11-23T10:52:23.424Z,99918.47
2018-11-23T10:54:53.347Z,99919.75
2018-11-23T10:57:24.210Z,99911.94
2018-11-23T10:59:54.159Z,99926.91
2018-11-23T11:04:32.365Z,99913.05
2018-11-23T11:07:09.884Z,99914.25
2018-11-23T11:09:40.357Z,99908.87
2018-11-23T11:12:09.968Z,99910.22
2018-11-23T11:14:40.535Z,99908.07
2018-11-23T11:17:10.498Z,99902.05
2018-11-23T11:19:40.584Z,99896.12
2018-11-23T11:22:10.499Z,99902.63
2018-11-23T11:24:40.794Z,99896.27
2018-11-23T11:27:10.817Z,99894.66
2018-11-23T11:29:40.846Z,99887.66
2018-11-23T11:32:11.077Z,99885.38
2018-11-23T11:34:41.670Z,99880.73
2018-11-23T11:37:11.427Z,99873.56
2018-11-23T11:39:41.642Z,99876.66
2018-11-23T11:42:11.570Z,99869.30
2018-11-23T11:44:41.979Z,99867.95
2018-11-23T11:47:12.114Z,99864.69
2018-11-23T11:49:41.842Z,99865.95
2018-11-23T11:52:11.497Z,99863.50
2018-11-23T11:54:41.474Z,99859.65
2018-11-23T11:57:11.847Z,99851.52
2018-11-23T11:59:41.643Z,99853.11
2018-11-23T12:02:15.160Z,99846.11
2018-11-23T12:04:45.176Z,99840.97
2018-11-23T12:07:15.037Z,99836.10
2018-11-23T12:09:44.970Z,99820.73
2018-11-23T12:12:14.597Z,99816.62
2018-11-23T12:14:44.576Z,99821.17
2018-11-23T12:17:14.161Z,99812.32
2018-11-23T12:19:43.700Z,99822.59
2018-11-23T12:22:14.340Z,99814.33
2018-11-23T12:24:43.901Z,99817.81
2018-11-23T12:27:13.366Z,99823.83
2018-11-23T12:29:43.659Z,99824.17
2018-11-23T12:32:13.162Z,99822.58
2018-11-23T12:34:42.677Z,99823.23
2018-11-23T12:37:12.512Z,99822.79
2018-11-23T12:39:42.023Z,99825.39
2018-11-23T12:42:12.371Z,99819.59
2018-11-23T12:44:41.927Z,99815.20
2018-11-23T12:47:12.018Z,99817.16
2018-11-23T12:49:42.151Z,99814.28
2018-11-23T12:52:11.711Z,99814.00
2018-11-23T12:54:42.334Z,99815.98
2018-11-23T12:57:13.298Z,99811.28
2018-11-23T12:59:42.643Z,99801.84
2018-11-23T13:02:12.143Z,99803.74
2018-11-23T13:04:41.661Z,99796.95
2018-11-23T13:07:12.890Z,99794.89
2018-11-23T13:09:43.122Z,99787.25
2018-11-23T13:12:13.258Z,99787.13
2018-11-23T13:14:43.015Z,99787.86
2018-11-23T13:17:14.979Z,99781.63
2018-11-23T13:19:45.391Z,99782.86
2018-11-23T13:22:19.291Z,99794.35
2018-11-23T13:24:52.430Z,99792.25
2018-11-23T13:27:22.539Z,99794.08
2018-11-23T13:29:55.335Z,99788.91
2018-11-23T13:32:25.562Z,99789.63
2018-11-23T13:34:56.730Z,99786.90
2018-11-23T13:37:29.209Z,99784.95
2018-11-23T13:40:00.598Z,99781.25
2018-11-23T13:42:34.122Z,99778.13
2018-11-23T13:45:05.093Z,99773.41
2018-11-23T13:47:35.923Z,99773.45
2018-11-23T13:50:07.803Z,99773.61
2018-11-23T13:52:38.586Z,99770.84
2018-11-23T13:55:09.147Z,99766.17
2018-11-23T13:57:39.456Z,99696.72
2018-11-23T14:00:14.419Z,99766.94
2018-11-23T14:02:44.949Z,99771.21
2018-11-23T14:05:18.521Z,99780.35
2018-11-23T14:07:51.120Z,99773.86
2018-11-23T14:10:27.301Z,99772.87
2018-11-23T14:12:59.026Z,99772.42
2018-11-23T14:15:36.190Z,99770.64
2018-11-23T14:18:06.915Z,99766.13
2018-11-23T14:20:38.344Z,99771.97
2018-11-23T14:23:09.196Z,99769.57
2018-11-23T14:25:38.974Z,99764.24
2018-11-23T14:28:09.321Z,99769.44
2018-11-23T14:30:39.392Z,99768.30
2018-11-23T14:33:10.324Z,99765.87
2018-11-23T14:35:40.317Z,99760.83
2018-11-23T14:38:11.342Z,99763.63
2018-11-23T14:40:40.919Z,99759.23
2018-11-23T14:43:11.132Z,99759.59
2018-11-23T14:45:41.744Z,99760.08
2018-11-23T14:48:14.008Z,99752.64
2018-11-23T14:50:52.768Z,99756.54
2018-11-23T14:53:23.344Z,99755.56
2018-11-23T14:55:58.319Z,99755.75
2018-11-23T14:58:30.933Z,99762.09
2018-11-23T15:01:04.885Z,99766.96
2018-11-23T15:03:41.580Z,99671.13
2018-11-23T15:06:12.541Z,99684.94
2018-11-23T15:08:42.459Z,99765.72
2018-11-23T15:11:13.574Z,99757.27
2018-11-23T15:13:43.294Z,99755.64
2018-11-23T15:16:20.574Z,99756.30
2018-11-23T15:18:51.516Z,99757.92
2018-11-23T15:21:22.806Z,99753.34
2018-11-23T15:23:52.676Z,99760.00
2018-11-23T15:26:23.532Z,99755.13
2018-11-23T15:28:54.692Z,99753.83
2018-11-23T15:31:25.198Z,99749.28
2018-11-23T15:33:55.699Z,99746.20
2018-11-23T15:36:25.784Z,99648.41
2018-11-23T15:38:56.842Z,99741.52
2018-11-23T15:41:28.505Z,99743.60
2018-11-23T15:43:58.648Z,99737.43
2018-11-23T15:46:29.010Z,99737.95
2018-11-23T15:48:59.596Z,99738.24
2018-11-23T15:51:29.355Z,99735.52
2018-11-23T15:54:00.155Z,99731.94
2018-11-23T15:56:31.133Z,99727.71
2018-11-23T15:59:01.093Z,99732.13
2018-11-23T16:01:31.887Z,99728.69
2018-11-23T16:04:03.127Z,99724.28
2018-11-23T16:06:35.711Z,99729.47
2018-11-23T16:09:10.976Z,99728.30
2018-11-23T16:11:42.356Z,99718.56
2018-11-23T16:14:14.220Z,99722.30
2018-11-23T16:16:44.302Z,99720.87
2018-11-23T16:19:14.440Z,99721.97
2018-11-23T16:21:44.908Z,99723.11
2018-11-23T16:24:14.965Z,99718.56
2018-11-23T16:26:46.455Z,99714.98
2018-11-23T16:29:17.101Z,99727.49
2018-11-23T16:31:47.360Z,99729.58
2018-11-23T16:34:18.639Z,99728.41
2018-11-23T16:36:49.284Z,99723.17
2018-11-23T16:39:19.622Z,99718.91
2018-11-23T16:41:50.324Z,99716.83
2018-11-23T16:44:22.118Z,99712.28
2018-11-23T16:46:53.321Z,99709.20
2018-11-23T16:49:25.097Z,99701.89
2018-11-23T16:51:56.085Z,99703.67
2018-11-23T16:54:26.761Z,99707.73
2018-11-23T16:56:56.869Z,99701.89
2018-11-23T16:59:26.674Z,99695.39
2018-11-23T17:01:56.897Z,99699.29
2018-11-23T17:04:29.144Z,99688.24
2018-11-23T17:06:59.325Z,99686.17
2018-11-23T17:09:33.006Z,99685.97
2018-11-23T17:12:02.921Z,99686.29
2018-11-23T17:14:33.989Z,99685.80
2018-11-23T17:17:04.269Z,99685.48
2018-11-23T17:19:35.109Z,99682.23
2018-11-23T17:22:07.277Z,99686.13
2018-11-23T17:24:37.746Z,99684.95
2018-11-23T17:27:08.206Z,99685.08
2018-11-23T17:29:38.804Z,99682.27
2018-11-23T17:32:09.432Z,99677.88
2018-11-23T17:34:42.151Z,99681.63
2018-11-23T17:37:12.913Z,99677.11
2018-11-23T17:39:42.648Z,99675.81
2018-11-23T17:42:13.239Z,99690.92
2018-11-23T17:44:44.096Z,99671.22
2018-11-23T17:47:16.635Z,99668.17
2018-11-23T17:49:46.472Z,99672.39
2018-11-23T17:52:17.984Z,99659.44
2018-11-23T17:54:48.374Z,99665.13
2018-11-23T17:57:18.714Z,99659.44
2018-11-23T17:59:53.064Z,99657.66
2018-11-23T18:02:27.895Z,99659.13
2018-11-23T18:04:59.410Z,99665.45
2018-11-23T18:07:31.411Z,99656.84
2018-11-23T18:10:01.352Z,99656.23
2018-11-23T18:12:31.513Z,99656.03
2018-11-23T18:15:01.954Z,99650.70
2018-11-23T18:17:31.537Z,99652.34
2018-11-23T18:20:01.616Z,99645.67
2018-11-23T18:22:31.637Z,99646.16
2018-11-23T18:25:01.294Z,99635.44
2018-11-23T18:27:31.805Z,99638.85
2018-11-23T18:30:01.995Z,99636.25
2018-11-23T18:32:32.098Z,99628.13
2018-11-23T18:35:02.751Z,99628.45
2018-11-23T18:37:32.647Z,99621.95
2018-11-23T18:40:02.492Z,99617.25
2018-11-23T18:42:33.098Z,99613.50
2018-11-23T18:45:04.300Z,99607.33
2018-11-23T18:47:34.292Z,99608.80
2018-11-23T18:50:05.632Z,99601.33
2018-11-23T18:52:35.312Z,99596.65
2018-11-23T18:55:05.253Z,99602.02
2018-11-23T18:57:37.481Z,99602.63
2018-11-23T19:00:10.766Z,99605.91
2018-11-23T19:02:40.955Z,99605.80
2018-11-23T19:05:13.377Z,99600.11
2018-11-23T19:07:43.142Z,99591.62
2018-11-23T19:10:14.530Z,99595.97
2018-11-23T19:12:44.384Z,99584.44
2018-11-23T19:15:16.171Z,99589.63
2018-11-23T19:17:46.410Z,99592.06
2018-11-23T19:20:19.912Z,99589.45
2018-11-23T19:22:50.651Z,99590.55
2018-11-23T19:25:21.440Z,99592.45
2018-11-23T19:27:52.111Z,99585.64
2018-11-23T19:30:28.022Z,99585.68
2018-11-23T19:32:54.420Z,99576.58
2018-11-23T19:35:24.356Z,99574.30
2018-11-23T19:37:54.400Z,99567.63
2018-11-23T19:40:24.063Z,99480.72
2018-11-23T19:42:54.749Z,99561.45
2018-11-23T19:45:24.821Z,99556.26
2018-11-23T19:47:54.489Z,99554.59
2018-11-23T19:50:24.138Z,99555.72
2018-11-23T19:52:54.950Z,99545.13
2018-11-23T19:55:24.889Z,99540.61
2018-11-23T19:57:54.464Z,99541.09
2018-11-23T20:00:26.710Z,99531.04
2018-11-23T20:02:57.744Z,99544.25
2018-11-23T20:05:28.506Z,99524.95
2018-11-23T20:07:58.929Z,99528.53
2018-11-23T20:10:29.456Z,99521.23
2018-11-23T20:13:03.496Z,99439.26
2018-11-23T20:15:34.825Z,99523.78
2018-11-23T20:18:08.133Z,99515.32
2018-11-23T20:20:39.109Z,99517.43
2018-11-23T20:23:09.102Z,99510.44
2018-11-23T20:25:39.012Z,99505.56
2018-11-23T20:28:09.815Z,99496.47
2018-11-23T20:30:42.439Z,99485.91
2018-11-23T20:33:12.708Z,99486.14
2018-11-23T20:35:43.918Z,99493.17
2018-11-23T20:38:13.706Z,99499.47
2018-11-23T20:40:43.885Z,99507.91
2018-11-23T20:43:14.064Z,99499.77
2018-11-23T20:45:43.776Z,99501.19
2018-11-23T20:48:14.177Z,99500.38
2018-11-23T20:50:44.279Z,99501.69
2018-11-23T20:53:14.896Z,99502.49
2018-11-23T20:55:45.309Z,99510.78
2018-11-23T20:58:18.689Z,99505.31
2018-11-23T21:00:48.396Z,99508.08
2018-11-23T21:03:18.415Z,99513.97
2018-11-23T21:05:48.431Z,99505.67
2018-11-23T21:08:20.051Z,99502.07
2018-11-23T21:10:49.887Z,99496.53
2018-11-23T21:13:20.047Z,99496.36
2018-11-23T21:15:49.887Z,99495.67
2018-11-23T21:18:20.397Z,99496.70
2018-11-23T21:20:50.851Z,99489.07
2018-11-23T21:23:21.017Z,99492.53
2018-11-23T21:25:51.104Z,99483.75
2018-11-23T21:28:23.179Z,99308.80
2018-11-23T21:30:54.260Z,99483.53
2018-11-23T21:33:24.823Z,99486.41
2018-11-23T21:35:54.909Z,99482.19
2018-11-23T21:38:25.579Z,99469.34
2018-11-23T21:40:56.915Z,99462.03
2018-11-23T21:43:27.445Z,99460.56
2018-11-23T21:45:58.304Z,99457.91
2018-11-23T21:48:28.219Z,99458.55
2018-11-23T21:50:57.933Z,99447.67
2018-11-23T21:53:28.645Z,99442.36
2018-11-23T21:55:59.170Z,99436.67
2018-11-23T21:58:30.911Z,99427.42
2018-11-23T22:01:01.619Z,99428.58
2018-11-23T22:03:32.262Z,99425.37
2018-11-23T22:06:04.921Z,99428.80
2018-11-23T22:08:35.242Z,99422.30
2018-11-23T22:11:06.609Z,99427.16
2018-11-23T22:13:36.989Z,99419.85
2018-11-23T22:16:07.988Z,99420.20
2018-11-23T22:18:38.457Z,99417.65
2018-11-23T22:21:08.834Z,99415.22
2018-11-23T22:23:38.424Z,99413.00
2018-11-23T22:26:08.830Z,99402.94
2018-11-23T22:28:39.029Z,99404.88
2018-11-23T22:31:08.972Z,99407.91
2018-11-23T22:33:39.235Z,99405.31
2018-11-23T22:36:08.934Z,99404.02
2018-11-23T22:38:39.054Z,99395.93
2018-11-23T22:41:09.268Z,99400.17
2018-11-23T22:43:39.235Z,99394.05
2018-11-23T22:46:09.768Z,99395.84
2018-11-23T22:48:39.862Z,99393.99
2018-11-23T22:51:09.515Z,99393.19
2018-11-23T22:53:39.501Z,99393.50
2018-11-23T22:56:10.033Z,99386.52
2018-11-23T22:58:40.324Z,99386.20
2018-11-23T23:01:10.485Z,99386.52
2018-11-23T23:03:41.740Z,99378.41
2018-11-23T23:06:12.375Z,99368.27
2018-11-23T23:08:42.466Z,99364.54
2018-11-23T23:11:12.724Z,99361.13
2018-11-23T23:13:42.991Z,99357.93
2018-11-23T23:16:14.078Z,99356.31
2018-11-23T23:18:44.700Z,99361.02
2018-11-23T23:21:14.763Z,99350.36
2018-11-23T23:23:44.570Z,99346.58
2018-11-23T23:26:14.642Z,99341.38
2018-11-23T23:28:45.097Z,99340.77
2018-11-23T23:31:14.925Z,99349.17
2018-11-23T23:33:45.239Z,99341.59
2018-11-23T23:36:15.463Z,99338.47
2018-11-23T23:38:45.358Z,99334.88
2018-11-23T23:41:16.158Z,99334.28
2018-11-23T23:43:45.937Z,99332.17
2018-11-23T23:46:46.365Z,99331.53
2018-11-23T23:49:17.361Z,99325.91
2018-11-23T23:51:47.193Z,99329.59
2018-11-23T23:54:17.951Z,99327.47
2018-11-23T23:56:47.631Z,99324.00
2018-11-23T23:59:17.352Z,99325.44
